Time;durP1;ratioP1;P1;durP2;ratioP2;P2;SDS_P1;SDS_P2;PMS_P1;PMS_P2;Temp;Humidity;BMP_temperature;BMP_pressure;BME280_temperature;BME280_humidity;BME280_pressure;Samples;Min_cycle;Max_cycle;Signal;HPM_P1;HPM_P2
2022/11/30 00:01:28;;;;;;;;;;;5.70;99.90;;;;;;5105992;28;19973;-64
2022/11/30 00:03:54;;;;;;;;;;;5.60;99.90;;;;;;5084407;28;20026;-64
2022/11/30 00:06:22;;;;;;;;;;;5.50;99.90;;;;;;5074896;28;19927;-63
2022/11/30 00:08:48;;;;;;;;;;;5.40;99.90;;;;;;5086457;28;19931;-63
2022/11/30 00:11:15;;;;;;;;;;;5.30;99.90;;;;;;5096670;28;20006;-64
2022/11/30 00:13:40;;;;;;;;;;;5.40;99.90;;;;;;5096712;28;20065;-64
2022/11/30 00:16:06;;;;;;;;;;;5.30;99.90;;;;;;5083387;28;20010;-64
2022/11/30 00:18:32;;;;;;;;;;;5.30;99.90;;;;;;5100003;28;19924;-64
2022/11/30 00:21:01;;;;;;;;;;;5.10;99.90;;;;;;5096181;28;20350;-64
2022/11/30 00:23:30;;;;;;;;;;;5.20;99.90;;;;;;5101839;28;20022;-64
2022/11/30 00:25:58;;;;;;;;;;;5.00;99.90;;;;;;5102900;28;20381;-64
2022/11/30 00:28:24;;;;;;;;;;;5.10;99.90;;;;;;5096787;28;20010;-65
2022/11/30 00:31:00;;;;;;;;;;;5.00;99.90;;;;;;5099368;28;20035;-64
2022/11/30 00:33:26;;;;;;;;;;;4.70;99.90;;;;;;5109128;27;19920;-64
2022/11/30 00:35:55;;;;;;;;;;;4.70;99.90;;;;;;5108872;27;20386;-64
2022/11/30 00:38:21;;;;;;;;;;;4.70;99.90;;;;;;5105614;27;19920;-64
2022/11/30 00:40:47;;;;;;;;;;;4.60;99.90;;;;;;5105763;27;20408;-64
2022/11/30 00:43:12;;;;;;;;;;;4.50;99.90;;;;;;5102721;27;19920;-64
2022/11/30 00:45:39;;;;;;;;;;;4.40;99.90;;;;;;5100639;27;19989;-65
2022/11/30 00:48:04;;;;;;;;;;;4.30;99.90;;;;;;5101301;27;20014;-64
2022/11/30 00:50:30;;;;;;;;;;;4.20;99.90;;;;;;5100783;27;20363;-64
2022/11/30 00:52:56;;;;;;;;;;;4.20;99.90;;;;;;5099463;27;20294;-64
2022/11/30 00:55:21;;;;;;;;;;;4.10;99.90;;;;;;5101937;27;20003;-64
2022/11/30 00:57:47;;;;;;;;;;;4.00;99.90;;;;;;5106280;27;20002;-64
2022/11/30 01:00:12;;;;;;;;;;;4.00;99.90;;;;;;5097846;27;20363;-64
2022/11/30 01:02:38;;;;;;;;;;;3.70;99.90;;;;;;5095439;27;19970;-64
2022/11/30 01:05:04;;;;;;;;;;;3.70;99.90;;;;;;5137269;27;19923;-64
2022/11/30 01:07:29;;;;;;;;;;;3.50;99.90;;;;;;5100931;27;20295;-64
2022/11/30 01:09:55;;;;;;;;;;;3.60;99.90;;;;;;5102941;28;20444;-64
2022/11/30 01:12:21;;;;;;;;;;;3.40;99.90;;;;;;5101769;27;19919;-63
2022/11/30 01:14:46;;;;;;;;;;;3.40;99.90;;;;;;5100167;27;19928;-64
2022/11/30 01:17:12;;;;;;;;;;;3.40;99.90;;;;;;5083487;28;20003;-63
2022/11/30 01:19:37;;;;;;;;;;;3.40;99.90;;;;;;5101044;27;19919;-64
2022/11/30 01:22:03;;;;;;;;;;;3.40;99.90;;;;;;5100415;27;19920;-64
2022/11/30 01:24:28;;;;;;;;;;;3.50;99.90;;;;;;5086562;28;20159;-64
2022/11/30 01:26:54;;;;;;;;;;;3.40;99.90;;;;;;5098123;28;19973;-64
2022/11/30 01:29:19;;;;;;;;;;;3.40;99.90;;;;;;5099452;27;20015;-64
2022/11/30 01:31:45;;;;;;;;;;;3.30;99.90;;;;;;5095726;27;19927;-64
2022/11/30 01:34:10;;;;;;;;;;;3.20;99.90;;;;;;5102057;27;20270;-64
2022/11/30 01:36:37;;;;;;;;;;;3.40;99.90;;;;;;5098040;27;19924;-64
2022/11/30 01:39:05;;;;;;;;;;;3.40;99.90;;;;;;5100897;27;19931;-64
2022/11/30 01:41:31;;;;;;;;;;;3.50;99.90;;;;;;5101376;27;19966;-64
2022/11/30 01:44:06;;;;;;;;;;;3.50;99.90;;;;;;5101553;27;19955;-64
2022/11/30 01:46:43;;;;;;;;;;;3.50;99.90;;;;;;5101591;27;19927;-63
2022/11/30 01:49:09;;;;;;;;;;;3.70;99.90;;;;;;5098247;27;19932;-64
2022/11/30 01:51:40;;;;;;;;;;;3.90;99.90;;;;;;5100626;27;19926;-64
2022/11/30 01:54:08;;;;;;;;;;;3.90;99.90;;;;;;5134832;27;20054;-64
2022/11/30 01:56:34;;;;;;;;;;;4.00;99.90;;;;;;5105888;27;20407;-64
2022/11/30 01:59:00;;;;;;;;;;;4.20;99.90;;;;;;5099599;27;19924;-64
2022/11/30 02:01:25;;;;;;;;;;;4.30;99.90;;;;;;5102592;27;21849;-63
2022/11/30 02:03:54;;;;;;;;;;;4.30;99.90;;;;;;5131325;27;20004;-65
2022/11/30 02:06:20;;;;;;;;;;;4.60;99.90;;;;;;5102888;27;20056;-65
2022/11/30 02:08:45;;;;;;;;;;;4.80;99.90;;;;;;5132985;27;20010;-64
2022/11/30 02:11:12;;;;;;;;;;;4.80;99.90;;;;;;5094884;27;19949;-64
2022/11/30 02:13:50;;;;;;;;;;;5.00;99.90;;;;;;5099874;27;19969;-64
2022/11/30 02:16:19;;;;;;;;;;;5.10;99.90;;;;;;5096788;28;19920;-64
2022/11/30 02:18:47;;;;;;;;;;;5.10;99.90;;;;;;5101894;27;20459;-64
2022/11/30 02:21:18;;;;;;;;;;;5.20;99.90;;;;;;5097606;27;20366;-64
2022/11/30 02:23:51;;;;;;;;;;;5.10;99.90;;;;;;5098436;28;19943;-64
2022/11/30 02:26:17;;;;;;;;;;;5.10;99.90;;;;;;5132785;27;20310;-64
2022/11/30 02:28:55;;;;;;;;;;;5.10;99.90;;;;;;5095927;27;20128;-65
2022/11/30 02:31:22;;;;;;;;;;;5.10;99.90;;;;;;5100033;27;19993;-64
2022/11/30 02:33:49;;;;;;;;;;;5.00;99.90;;;;;;5104264;27;19920;-65
2022/11/30 02:36:14;;;;;;;;;;;5.20;99.90;;;;;;5127264;27;20290;-64
2022/11/30 02:38:40;;;;;;;;;;;5.20;99.90;;;;;;5128481;27;19924;-64
2022/11/30 02:41:06;;;;;;;;;;;5.20;99.90;;;;;;5106555;27;19920;-65
2022/11/30 02:43:32;;;;;;;;;;;5.30;99.90;;;;;;5101202;27;19969;-64
2022/11/30 02:46:18;;;;;;;;;;;5.30;99.90;;;;;;5101849;27;20288;-65
2022/11/30 02:49:02;;;;;;;;;;;5.40;99.90;;;;;;5092253;27;19988;-64
2022/11/30 02:51:29;;;;;;;;;;;5.30;99.90;;;;;;5097017;28;19930;-64
2022/11/30 02:53:55;;;;;;;;;;;5.30;99.90;;;;;;5130331;27;20378;-63
2022/11/30 02:56:21;;;;;;;;;;;5.40;99.90;;;;;;5098807;28;19931;-63
2022/11/30 02:58:47;;;;;;;;;;;5.30;99.90;;;;;;5098901;27;19923;-64
2022/11/30 03:01:12;;;;;;;;;;;5.40;99.90;;;;;;5101165;27;20381;-64
2022/11/30 03:03:38;;;;;;;;;;;5.20;99.90;;;;;;5097330;27;19972;-64
2022/11/30 03:06:03;;;;;;;;;;;5.40;99.90;;;;;;5103831;27;19959;-63
2022/11/30 03:08:29;;;;;;;;;;;5.30;99.90;;;;;;5099387;28;20436;-64
2022/11/30 03:10:54;;;;;;;;;;;5.30;99.90;;;;;;5100094;27;20359;-63
2022/11/30 03:13:20;;;;;;;;;;;5.30;99.90;;;;;;5101023;28;20015;-64
2022/11/30 03:15:46;;;;;;;;;;;5.30;99.90;;;;;;5103169;27;20481;-64
2022/11/30 03:18:12;;;;;;;;;;;5.40;99.90;;;;;;5101000;27;19984;-64
2022/11/30 03:20:41;;;;;;;;;;;5.30;99.90;;;;;;5107524;27;19924;-63
2022/11/30 03:23:07;;;;;;;;;;;5.40;99.90;;;;;;5090679;27;19934;-64
2022/11/30 03:25:32;;;;;;;;;;;5.30;99.90;;;;;;5128891;27;19927;-64
2022/11/30 03:27:59;;;;;;;;;;;5.30;99.90;;;;;;5100134;27;20407;-64
2022/11/30 03:30:24;;;;;;;;;;;5.30;99.90;;;;;;5103378;27;19946;-63
2022/11/30 03:32:51;;;;;;;;;;;5.20;99.90;;;;;;5097959;28;19924;-64
2022/11/30 03:35:16;;;;;;;;;;;5.20;99.90;;;;;;5103048;27;19931;-64
2022/11/30 03:37:42;;;;;;;;;;;5.10;99.90;;;;;;5102077;28;19920;-64
2022/11/30 03:40:07;;;;;;;;;;;5.00;99.90;;;;;;5128057;27;20014;-64
2022/11/30 03:42:33;;;;;;;;;;;5.00;99.90;;;;;;5103567;28;19923;-64
2022/11/30 03:44:58;;;;;;;;;;;5.10;99.90;;;;;;5079482;28;19920;-64
2022/11/30 03:47:24;;;;;;;;;;;4.90;99.90;;;;;;5097119;28;20246;-64
2022/11/30 03:49:49;;;;;;;;;;;5.00;99.90;;;;;;5109584;28;19957;-64
2022/11/30 03:52:15;;;;;;;;;;;5.00;99.90;;;;;;5093386;28;20504;-64
2022/11/30 03:54:40;;;;;;;;;;;4.80;99.90;;;;;;5100725;28;19973;-64
2022/11/30 03:57:06;;;;;;;;;;;4.80;99.90;;;;;;5097284;28;19920;-64
2022/11/30 03:59:31;;;;;;;;;;;4.60;99.90;;;;;;5126644;27;19923;-64
2022/11/30 04:01:56;;;;;;;;;;;4.40;99.90;;;;;;5094223;28;19984;-64
2022/11/30 04:04:22;;;;;;;;;;;4.50;99.90;;;;;;5106165;28;19924;-65
2022/11/30 04:06:47;;;;;;;;;;;4.40;99.90;;;;;;5100619;27;20359;-65
2022/11/30 04:09:13;;;;;;;;;;;4.50;99.90;;;;;;5102356;27;19968;-64
2022/11/30 04:11:39;;;;;;;;;;;4.60;99.90;;;;;;5103274;27;19924;-64
2022/11/30 04:14:04;;;;;;;;;;;4.60;99.90;;;;;;5117095;27;19941;-64
2022/11/30 04:16:29;;;;;;;;;;;4.60;99.90;;;;;;5118469;27;19926;-64
2022/11/30 04:18:56;;;;;;;;;;;4.70;99.90;;;;;;5101281;27;21371;-64
2022/11/30 04:21:21;;;;;;;;;;;4.70;99.90;;;;;;5096359;28;19999;-64
2022/11/30 04:23:47;;;;;;;;;;;4.70;99.90;;;;;;5099054;28;20010;-64
2022/11/30 04:26:15;;;;;;;;;;;4.70;99.90;;;;;;5107061;28;19919;-64
2022/11/30 04:28:41;;;;;;;;;;;4.70;99.90;;;;;;5133944;27;20992;-65
2022/11/30 04:31:07;;;;;;;;;;;4.70;99.90;;;;;;5106145;27;19935;-64
2022/11/30 04:33:32;;;;;;;;;;;4.50;99.90;;;;;;5104054;27;19920;-64
2022/11/30 04:35:59;;;;;;;;;;;4.50;99.90;;;;;;5136968;27;19965;-65
2022/11/30 04:38:26;;;;;;;;;;;4.50;99.90;;;;;;5100198;27;19924;-64
2022/11/30 04:40:52;;;;;;;;;;;4.40;99.90;;;;;;5106713;27;19929;-64
2022/11/30 04:43:17;;;;;;;;;;;4.40;99.90;;;;;;5100722;27;20006;-64
2022/11/30 04:45:43;;;;;;;;;;;4.40;99.90;;;;;;5133752;27;20386;-63
2022/11/30 04:48:09;;;;;;;;;;;4.30;99.90;;;;;;5119412;27;20439;-64
2022/11/30 04:50:34;;;;;;;;;;;4.50;99.90;;;;;;5108497;27;19962;-64
2022/11/30 04:53:00;;;;;;;;;;;4.40;99.90;;;;;;5099131;27;19920;-64
2022/11/30 04:55:26;;;;;;;;;;;4.50;99.90;;;;;;5106159;27;20420;-64
2022/11/30 04:57:51;;;;;;;;;;;4.50;99.90;;;;;;5100257;27;19934;-64
2022/11/30 05:00:17;;;;;;;;;;;4.40;99.90;;;;;;5097429;27;19924;-64
2022/11/30 05:02:43;;;;;;;;;;;4.40;99.90;;;;;;5102138;27;19920;-64
2022/11/30 05:05:09;;;;;;;;;;;4.60;99.90;;;;;;5096828;27;19972;-64
2022/11/30 05:07:34;;;;;;;;;;;4.60;99.90;;;;;;5125824;27;20069;-64
2022/11/30 05:10:00;;;;;;;;;;;4.50;99.90;;;;;;5099092;27;19924;-64
2022/11/30 05:12:26;;;;;;;;;;;4.50;99.90;;;;;;5104986;27;19945;-64
2022/11/30 05:14:52;;;;;;;;;;;4.50;99.90;;;;;;5106780;27;20307;-64
2022/11/30 05:17:17;;;;;;;;;;;4.60;99.90;;;;;;5105010;27;19923;-64
2022/11/30 05:19:43;;;;;;;;;;;4.70;99.90;;;;;;5136457;27;19954;-64
2022/11/30 05:22:08;;;;;;;;;;;4.70;99.90;;;;;;5099944;27;19934;-64
2022/11/30 05:24:34;;;;;;;;;;;4.70;99.90;;;;;;5096575;27;20393;-64
2022/11/30 05:26:59;;;;;;;;;;;4.70;99.90;;;;;;5102471;27;20004;-64
2022/11/30 05:29:25;;;;;;;;;;;4.80;99.90;;;;;;5099283;27;20309;-64
2022/11/30 05:31:50;;;;;;;;;;;4.90;99.90;;;;;;5100043;27;19935;-64
2022/11/30 05:34:16;;;;;;;;;;;4.90;99.90;;;;;;5133749;27;20006;-64
2022/11/30 05:36:41;;;;;;;;;;;5.00;99.90;;;;;;5082771;27;19924;-64
2022/11/30 05:39:07;;;;;;;;;;;5.00;99.90;;;;;;5107388;27;19919;-64
2022/11/30 05:41:32;;;;;;;;;;;4.90;99.90;;;;;;5094121;27;19920;-64
2022/11/30 05:43:58;;;;;;;;;;;5.00;99.90;;;;;;5099590;27;20023;-64
2022/11/30 05:46:24;;;;;;;;;;;5.00;99.90;;;;;;5098754;27;20370;-64
2022/11/30 05:48:49;;;;;;;;;;;5.00;99.90;;;;;;5095570;27;19970;-64
2022/11/30 05:51:16;;;;;;;;;;;5.00;99.90;;;;;;5098841;27;20370;-64
2022/11/30 05:53:42;;;;;;;;;;;5.00;99.90;;;;;;5107074;27;19997;-64
2022/11/30 05:56:09;;;;;;;;;;;5.20;99.90;;;;;;5114295;27;20391;-65
2022/11/30 05:58:35;;;;;;;;;;;5.20;99.90;;;;;;5133914;27;19973;-64
2022/11/30 06:01:00;;;;;;;;;;;5.30;99.90;;;;;;5138884;27;19971;-64
2022/11/30 06:03:29;;;;;;;;;;;5.20;99.90;;;;;;5100459;27;19920;-64
2022/11/30 06:05:55;;;;;;;;;;;5.30;99.90;;;;;;5101039;27;20285;-64
2022/11/30 06:08:20;;;;;;;;;;;5.30;99.90;;;;;;5101644;27;19928;-64
2022/11/30 06:10:46;;;;;;;;;;;5.30;99.90;;;;;;5101138;28;19920;-63
2022/11/30 06:13:12;;;;;;;;;;;5.20;99.90;;;;;;5097996;27;19928;-64
2022/11/30 06:15:40;;;;;;;;;;;5.30;99.90;;;;;;5099473;27;19924;-64
2022/11/30 06:18:05;;;;;;;;;;;5.30;99.90;;;;;;5131642;27;19930;-64
2022/11/30 06:20:31;;;;;;;;;;;5.30;99.90;;;;;;5102679;27;21763;-64
2022/11/30 06:22:58;;;;;;;;;;;5.20;99.90;;;;;;5100316;27;19927;-64
2022/11/30 06:25:24;;;;;;;;;;;5.30;99.90;;;;;;5104900;27;19916;-64
2022/11/30 06:27:50;;;;;;;;;;;5.20;99.90;;;;;;5085915;27;20294;-64
2022/11/30 06:30:16;;;;;;;;;;;5.30;99.90;;;;;;5109509;27;19951;-64
2022/11/30 06:32:45;;;;;;;;;;;5.30;99.90;;;;;;5115258;27;19919;-64
2022/11/30 06:35:10;;;;;;;;;;;5.30;99.90;;;;;;5142303;27;19920;-64
2022/11/30 06:37:36;;;;;;;;;;;5.30;99.90;;;;;;5104810;28;20400;-64
2022/11/30 06:40:02;;;;;;;;;;;5.30;99.90;;;;;;5096621;28;20054;-65
2022/11/30 06:42:28;;;;;;;;;;;5.40;99.90;;;;;;5112164;27;19919;-64
2022/11/30 06:44:54;;;;;;;;;;;5.20;99.90;;;;;;5107625;28;19919;-64
2022/11/30 06:47:19;;;;;;;;;;;5.30;99.90;;;;;;5102045;27;19931;-64
2022/11/30 06:49:45;;;;;;;;;;;5.30;99.90;;;;;;5100524;27;19924;-64
2022/11/30 06:52:10;;;;;;;;;;;5.20;99.90;;;;;;5132478;27;19920;-64
2022/11/30 06:54:36;;;;;;;;;;;5.30;99.90;;;;;;5091779;28;19920;-64
2022/11/30 06:57:01;;;;;;;;;;;5.30;99.90;;;;;;5102966;28;19923;-64
2022/11/30 06:59:27;;;;;;;;;;;5.40;99.90;;;;;;5108557;28;19965;-64
2022/11/30 07:01:52;;;;;;;;;;;5.30;99.90;;;;;;5139832;27;19963;-64
2022/11/30 07:04:18;;;;;;;;;;;5.40;99.90;;;;;;5130241;27;20294;-64
2022/11/30 07:06:43;;;;;;;;;;;5.40;99.90;;;;;;5129205;27;19920;-64
2022/11/30 07:09:10;;;;;;;;;;;5.40;99.90;;;;;;5098841;28;19924;-64
2022/11/30 07:11:36;;;;;;;;;;;5.40;99.90;;;;;;5109219;28;19924;-64
2022/11/30 07:14:01;;;;;;;;;;;5.40;99.90;;;;;;5108858;28;19931;-64
2022/11/30 07:16:27;;;;;;;;;;;5.50;99.90;;;;;;5109204;28;19919;-64
2022/11/30 07:18:52;;;;;;;;;;;5.40;99.90;;;;;;5096215;28;19999;-64
2022/11/30 07:21:18;;;;;;;;;;;5.40;99.90;;;;;;5127439;27;19939;-64
2022/11/30 07:26:27;;;;;;;;;;;5.50;99.90;;;;;;5093254;27;20006;-64
2022/11/30 07:28:53;;;;;;;;;;;5.40;99.90;;;;;;5094047;27;19932;-64
2022/11/30 07:31:19;;;;;;;;;;;5.50;99.90;;;;;;5098101;27;19931;-64
2022/11/30 07:33:45;;;;;;;;;;;5.40;99.90;;;;;;5093373;27;19932;-64
2022/11/30 07:36:10;;;;;;;;;;;5.50;99.90;;;;;;5124536;27;20294;-64
2022/11/30 07:38:36;;;;;;;;;;;5.40;99.90;;;;;;5095842;27;20331;-64
2022/11/30 07:41:02;;;;;;;;;;;5.50;99.90;;;;;;5125516;27;19924;-63
2022/11/30 07:43:27;;;;;;;;;;;5.50;99.90;;;;;;5103203;27;19963;-64
2022/11/30 07:45:53;;;;;;;;;;;5.50;99.90;;;;;;5105433;27;19920;-64
2022/11/30 07:48:19;;;;;;;;;;;5.40;99.90;;;;;;5097796;28;19924;-64
2022/11/30 07:50:45;;;;;;;;;;;5.60;99.90;;;;;;5137609;27;19931;-64
2022/11/30 07:53:10;;;;;;;;;;;5.60;99.90;;;;;;5123470;27;20026;-63
2022/11/30 07:55:36;;;;;;;;;;;5.60;99.90;;;;;;5105302;28;20038;-64
2022/11/30 07:58:01;;;;;;;;;;;5.70;99.90;;;;;;5101868;28;19972;-64
2022/11/30 08:00:27;;;;;;;;;;;5.70;99.90;;;;;;5110909;28;19916;-64
2022/11/30 08:02:52;;;;;;;;;;;5.70;99.90;;;;;;5102713;28;19927;-64
2022/11/30 08:05:18;;;;;;;;;;;5.70;99.90;;;;;;5099629;28;19947;-64
2022/11/30 08:07:44;;;;;;;;;;;5.60;99.90;;;;;;5123582;27;20405;-64
2022/11/30 08:10:10;;;;;;;;;;;5.80;99.90;;;;;;5082047;28;20414;-64
2022/11/30 08:12:36;;;;;;;;;;;5.70;99.90;;;;;;5106668;28;19931;-64
2022/11/30 08:15:02;;;;;;;;;;;5.70;99.90;;;;;;5108640;28;19924;-64
2022/11/30 08:17:27;;;;;;;;;;;5.70;99.90;;;;;;5093086;28;20030;-64
2022/11/30 08:19:53;;;;;;;;;;;5.80;99.90;;;;;;5080727;28;19926;-64
2022/11/30 08:22:18;;;;;;;;;;;5.80;99.90;;;;;;5085410;28;19920;-64
2022/11/30 08:24:44;;;;;;;;;;;5.90;99.90;;;;;;5076917;28;19959;-64
2022/11/30 08:27:09;;;;;;;;;;;5.80;99.90;;;;;;5082629;28;19943;-64
2022/11/30 08:29:34;;;;;;;;;;;5.80;99.90;;;;;;5089111;28;19928;-64
2022/11/30 08:32:00;;;;;;;;;;;5.80;99.90;;;;;;5077699;28;19926;-64
2022/11/30 08:34:25;;;;;;;;;;;5.90;99.90;;;;;;5091213;28;19920;-64
2022/11/30 08:36:51;;;;;;;;;;;5.90;99.90;;;;;;5066844;28;19971;-64
2022/11/30 08:39:16;;;;;;;;;;;6.00;99.90;;;;;;5076560;28;20005;-64
2022/11/30 08:41:42;;;;;;;;;;;6.00;99.90;;;;;;5073716;28;19927;-64
2022/11/30 08:44:07;;;;;;;;;;;6.00;99.90;;;;;;5073498;28;19939;-64
2022/11/30 08:46:33;;;;;;;;;;;6.00;99.90;;;;;;5096166;28;19929;-64
2022/11/30 08:49:00;;;;;;;;;;;6.10;99.90;;;;;;5086839;28;19981;-64
2022/11/30 08:51:26;;;;;;;;;;;6.20;99.90;;;;;;5107905;28;19923;-64
2022/11/30 08:53:51;;;;;;;;;;;6.10;99.90;;;;;;5096019;28;19927;-64
2022/11/30 08:56:18;;;;;;;;;;;6.20;99.90;;;;;;5093127;28;19927;-64
2022/11/30 08:58:44;;;;;;;;;;;6.10;99.90;;;;;;5096569;28;20267;-64
2022/11/30 09:01:12;;;;;;;;;;;6.20;99.90;;;;;;5077788;28;19941;-66
2022/11/30 09:03:38;;;;;;;;;;;6.20;99.90;;;;;;5076431;28;19928;-66
2022/11/30 09:06:22;;;;;;;;;;;6.30;99.90;;;;;;5087505;28;20286;-65
2022/11/30 09:08:49;;;;;;;;;;;6.30;99.90;;;;;;5118041;27;20413;-67
2022/11/30 09:11:17;;;;;;;;;;;6.30;99.90;;;;;;5095734;28;20018;-66
2022/11/30 09:13:52;;;;;;;;;;;6.30;99.90;;;;;;5094607;28;19927;-66
2022/11/30 09:16:18;;;;;;;;;;;6.40;99.90;;;;;;5113776;28;19966;-65
2022/11/30 09:18:44;;;;;;;;;;;6.50;99.90;;;;;;5127391;27;19931;-66
2022/11/30 09:21:11;;;;;;;;;;;6.50;99.90;;;;;;5092004;28;20361;-66
2022/11/30 09:23:36;;;;;;;;;;;6.50;99.90;;;;;;5144242;27;20358;-65
2022/11/30 09:26:04;;;;;;;;;;;6.40;99.90;;;;;;5093668;28;19920;-65
2022/11/30 09:28:30;;;;;;;;;;;6.40;99.90;;;;;;5102073;28;20332;-66
2022/11/30 09:31:00;;;;;;;;;;;6.50;99.90;;;;;;5101324;28;19920;-66
2022/11/30 09:33:25;;;;;;;;;;;6.50;99.90;;;;;;5108621;28;20393;-65
2022/11/30 09:35:55;;;;;;;;;;;6.60;99.90;;;;;;5106229;28;19920;-66
2022/11/30 09:38:20;;;;;;;;;;;6.60;99.90;;;;;;5111697;28;20294;-65
2022/11/30 09:40:51;;;;;;;;;;;6.60;99.90;;;;;;5110131;28;19930;-65
2022/11/30 09:43:37;;;;;;;;;;;6.60;99.90;;;;;;5110959;28;19959;-66
2022/11/30 09:46:04;;;;;;;;;;;6.70;99.90;;;;;;5049723;28;20014;-66
2022/11/30 09:48:45;;;;;;;;;;;6.80;99.90;;;;;;5104314;28;20358;-65
2022/11/30 09:51:14;;;;;;;;;;;6.80;99.90;;;;;;5108744;28;19920;-65
2022/11/30 09:53:42;;;;;;;;;;;6.80;99.90;;;;;;5111425;28;19973;-66
2022/11/30 09:56:20;;;;;;;;;;;6.90;99.90;;;;;;5107835;28;19974;-66
2022/11/30 09:58:48;;;;;;;;;;;6.90;99.90;;;;;;5109860;28;19936;-65
2022/11/30 10:01:17;;;;;;;;;;;6.80;99.90;;;;;;5109555;28;19927;-66
2022/11/30 10:03:43;;;;;;;;;;;6.90;99.90;;;;;;5107217;28;20398;-65
2022/11/30 10:06:24;;;;;;;;;;;6.90;99.90;;;;;;5090606;28;19975;-66
2022/11/30 10:08:59;;;;;;;;;;;6.90;99.90;;;;;;5141132;27;20370;-66
2022/11/30 10:11:48;;;;;;;;;;;6.90;99.90;;;;;;5107685;28;19926;-66
2022/11/30 10:14:26;;;;;;;;;;;6.90;99.90;;;;;;5086034;28;20375;-67
2022/11/30 10:16:54;;;;;;;;;;;6.90;99.90;;;;;;5107621;28;19943;-65
2022/11/30 10:19:35;;;;;;;;;;;6.90;99.90;;;;;;5111238;28;19926;-65
2022/11/30 10:22:04;;;;;;;;;;;6.90;99.90;;;;;;5091608;28;19920;-66
2022/11/30 10:24:34;;;;;;;;;;;6.90;99.90;;;;;;5104035;28;19982;-65
2022/11/30 10:27:04;;;;;;;;;;;6.90;99.90;;;;;;5105138;28;20052;-66
2022/11/30 10:29:34;;;;;;;;;;;7.00;99.90;;;;;;5109591;28;19928;-65
2022/11/30 10:32:10;;;;;;;;;;;6.90;99.90;;;;;;5110111;27;19926;-66
2022/11/30 10:34:35;;;;;;;;;;;7.00;99.90;;;;;;5105255;28;19924;-65
2022/11/30 10:37:18;;;;;;;;;;;6.90;99.90;;;;;;5102584;28;20313;-65
2022/11/30 10:40:01;;;;;;;;;;;7.00;99.90;;;;;;5104122;28;19920;-66
2022/11/30 10:42:39;;;;;;;;;;;7.00;99.90;;;;;;5104331;28;19919;-65
2022/11/30 10:45:05;;;;;;;;;;;7.00;99.90;;;;;;5096111;28;19945;-65
2022/11/30 10:47:35;;;;;;;;;;;7.00;99.90;;;;;;5092203;28;20278;-65
2022/11/30 10:50:02;;;;;;;;;;;7.10;99.90;;;;;;5110804;28;20583;-65
2022/11/30 10:52:30;;;;;;;;;;;7.00;99.90;;;;;;5091260;28;19970;-65
2022/11/30 10:54:56;;;;;;;;;;;7.10;99.90;;;;;;5110568;28;20165;-66
2022/11/30 10:57:23;;;;;;;;;;;7.10;99.90;;;;;;5084037;28;20386;-65
2022/11/30 10:59:52;;;;;;;;;;;7.00;99.90;;;;;;5112134;27;19920;-65
2022/11/30 11:02:36;;;;;;;;;;;7.00;99.90;;;;;;5092517;28;19920;-64
2022/11/30 11:05:07;;;;;;;;;;;7.10;99.90;;;;;;5143595;27;19973;-64
2022/11/30 11:07:43;;;;;;;;;;;7.10;99.90;;;;;;5106393;28;19920;-65
2022/11/30 11:10:12;;;;;;;;;;;7.10;99.90;;;;;;5096487;28;19924;-66
2022/11/30 11:12:38;;;;;;;;;;;7.10;99.90;;;;;;5095164;28;19931;-66
2022/11/30 11:15:09;;;;;;;;;;;7.00;99.90;;;;;;5106052;28;19971;-65
2022/11/30 11:17:35;;;;;;;;;;;7.10;99.90;;;;;;5096415;28;19935;-65
2022/11/30 11:20:01;;;;;;;;;;;7.00;99.90;;;;;;5108717;28;19995;-66
2022/11/30 11:22:28;;;;;;;;;;;7.10;99.90;;;;;;5101278;28;20076;-66
2022/11/30 11:25:14;;;;;;;;;;;7.10;99.90;;;;;;5105699;28;19931;-66
2022/11/30 11:27:40;;;;;;;;;;;7.00;99.90;;;;;;5094142;28;19924;-65
2022/11/30 11:30:07;;;;;;;;;;;7.10;99.90;;;;;;5110118;28;20336;-66
2022/11/30 11:32:33;;;;;;;;;;;7.00;99.90;;;;;;5115140;27;19927;-65
2022/11/30 11:34:59;;;;;;;;;;;7.10;99.90;;;;;;5141960;27;20307;-65
2022/11/30 11:37:29;;;;;;;;;;;7.10;99.90;;;;;;5094538;27;19924;-65
2022/11/30 11:39:58;;;;;;;;;;;7.00;99.90;;;;;;5102923;28;20007;-65
2022/11/30 11:42:24;;;;;;;;;;;7.00;99.90;;;;;;5103882;28;20299;-65
2022/11/30 11:44:55;;;;;;;;;;;7.10;99.90;;;;;;5107407;28;19927;-66
2022/11/30 11:47:24;;;;;;;;;;;7.00;99.90;;;;;;5106377;28;19919;-65
2022/11/30 11:49:49;;;;;;;;;;;7.10;99.90;;;;;;5100992;28;19928;-66
2022/11/30 11:52:16;;;;;;;;;;;7.00;99.90;;;;;;5110721;27;19927;-66
2022/11/30 11:54:45;;;;;;;;;;;7.10;99.90;;;;;;5109250;28;20328;-66
2022/11/30 11:57:12;;;;;;;;;;;7.10;99.90;;;;;;5101979;28;20457;-65
2022/11/30 11:59:53;;;;;;;;;;;7.10;99.90;;;;;;5109996;28;20006;-66
2022/11/30 12:02:39;;;;;;;;;;;7.20;99.90;;;;;;5124188;27;20097;-65
2022/11/30 12:05:31;;;;;;;;;;;7.10;99.90;;;;;;5085325;28;20416;-66
2022/11/30 12:07:56;;;;;;;;;;;7.10;99.90;;;;;;5094407;28;19920;-66
2022/11/30 12:10:35;;;;;;;;;;;7.20;99.90;;;;;;5099565;28;19934;-66
2022/11/30 12:13:00;;;;;;;;;;;7.10;99.90;;;;;;5113449;27;19920;-65
2022/11/30 12:15:37;;;;;;;;;;;7.20;99.90;;;;;;5085390;28;20290;-66
2022/11/30 12:18:11;;;;;;;;;;;7.20;99.90;;;;;;5115401;28;19927;-66
2022/11/30 12:20:47;;;;;;;;;;;7.20;99.90;;;;;;5087535;28;19920;-66
2022/11/30 12:23:22;;;;;;;;;;;7.20;99.90;;;;;;5116890;27;19919;-66
2022/11/30 12:26:00;;;;;;;;;;;7.20;99.90;;;;;;5083477;28;19927;-65
2022/11/30 12:28:48;;;;;;;;;;;7.20;99.90;;;;;;5109986;27;19928;-65
2022/11/30 12:31:14;;;;;;;;;;;7.20;99.90;;;;;;5073619;28;19976;-67
2022/11/30 12:33:40;;;;;;;;;;;7.20;99.90;;;;;;5108674;27;19934;-65
2022/11/30 12:36:24;;;;;;;;;;;7.20;99.90;;;;;;5075321;28;20221;-65
2022/11/30 12:39:09;;;;;;;;;;;7.20;99.90;;;;;;5083914;28;19926;-65
2022/11/30 12:41:43;;;;;;;;;;;7.20;99.90;;;;;;5089026;28;19973;-66
2022/11/30 12:44:27;;;;;;;;;;;7.30;99.90;;;;;;5061525;28;19931;-65
2022/11/30 12:46:53;;;;;;;;;;;7.20;99.90;;;;;;5081612;28;19920;-66
2022/11/30 12:49:42;;;;;;;;;;;7.20;99.90;;;;;;5092072;28;19935;-66
2022/11/30 12:52:07;;;;;;;;;;;7.20;99.90;;;;;;5081107;28;20016;-66
2022/11/30 12:54:43;;;;;;;;;;;7.20;99.90;;;;;;5091422;28;19982;-66
2022/11/30 12:57:17;;;;;;;;;;;7.20;99.90;;;;;;5090860;27;19924;-67
2022/11/30 12:59:54;;;;;;;;;;;7.20;99.90;;;;;;5093839;28;19920;-72
2022/11/30 13:02:25;;;;;;;;;;;7.20;99.90;;;;;;5087628;28;19969;-65
2022/11/30 13:05:03;;;;;;;;;;;7.20;99.90;;;;;;5084388;28;19920;-66
2022/11/30 13:07:33;;;;;;;;;;;7.20;99.90;;;;;;5093915;28;19920;-66
2022/11/30 13:10:06;;;;;;;;;;;7.20;99.90;;;;;;5110358;28;19950;-65
2022/11/30 13:12:36;;;;;;;;;;;7.20;99.90;;;;;;5091762;28;19930;-65
2022/11/30 13:15:22;;;;;;;;;;;7.20;99.90;;;;;;5111378;27;20412;-66
2022/11/30 13:17:48;;;;;;;;;;;7.20;99.90;;;;;;5085020;28;19949;-65
2022/11/30 13:20:23;;;;;;;;;;;7.20;99.90;;;;;;5139842;27;19927;-66
2022/11/30 13:23:07;;;;;;;;;;;7.10;99.90;;;;;;5109411;27;19923;-66
2022/11/30 13:25:40;;;;;;;;;;;7.10;99.90;;;;;;5114034;27;19951;-66
2022/11/30 13:28:06;;;;;;;;;;;7.20;99.90;;;;;;5109432;28;19980;-66
2022/11/30 13:30:41;;;;;;;;;;;7.20;99.90;;;;;;5112583;28;19928;-66
2022/11/30 13:33:26;;;;;;;;;;;7.20;99.90;;;;;;5104411;27;19999;-66
2022/11/30 13:35:52;;;;;;;;;;;7.20;99.90;;;;;;5125923;27;19924;-65
2022/11/30 13:38:19;;;;;;;;;;;7.20;99.90;;;;;;5102092;28;20002;-66
2022/11/30 13:40:53;;;;;;;;;;;7.10;99.90;;;;;;5099345;28;19923;-66
2022/11/30 13:43:20;;;;;;;;;;;7.20;99.90;;;;;;5119408;27;19967;-66
2022/11/30 13:45:46;;;;;;;;;;;7.20;99.90;;;;;;5136320;27;19977;-66
2022/11/30 13:48:16;;;;;;;;;;;7.10;99.90;;;;;;5100404;28;19927;-67
2022/11/30 13:50:44;;;;;;;;;;;7.20;99.90;;;;;;5136645;27;19923;-66
2022/11/30 13:53:24;;;;;;;;;;;7.10;99.90;;;;;;5099356;27;19926;-66
2022/11/30 13:55:51;;;;;;;;;;;7.10;99.90;;;;;;5106341;27;19968;-65
2022/11/30 13:58:18;;;;;;;;;;;7.10;99.90;;;;;;5102326;27;20010;-68
2022/11/30 14:00:59;;;;;;;;;;;7.10;99.90;;;;;;5106935;27;19926;-67
2022/11/30 14:03:27;;;;;;;;;;;7.10;99.90;;;;;;5102088;28;19927;-66
2022/11/30 14:05:55;;;;;;;;;;;7.10;99.90;;;;;;5089591;28;20394;-66
2022/11/30 14:08:21;;;;;;;;;;;7.10;99.90;;;;;;5102581;28;19924;-65
2022/11/30 14:10:46;;;;;;;;;;;7.00;99.90;;;;;;5107396;28;20263;-67
2022/11/30 14:13:13;;;;;;;;;;;7.00;99.90;;;;;;5102825;27;19920;-66
2022/11/30 14:15:42;;;;;;;;;;;7.00;99.90;;;;;;5104359;27;19927;-65
2022/11/30 14:18:07;;;;;;;;;;;6.90;99.90;;;;;;5102402;27;20343;-66
2022/11/30 14:20:52;;;;;;;;;;;7.00;99.90;;;;;;5102204;27;19966;-66
2022/11/30 14:23:21;;;;;;;;;;;6.90;99.90;;;;;;5106966;28;20476;-66
2022/11/30 14:25:48;;;;;;;;;;;6.90;99.90;;;;;;5106593;27;20037;-67
2022/11/30 14:28:18;;;;;;;;;;;6.90;99.90;;;;;;5131862;27;19934;-66
2022/11/30 14:30:45;;;;;;;;;;;6.80;99.90;;;;;;5107989;28;19959;-67
2022/11/30 14:33:31;;;;;;;;;;;6.90;99.90;;;;;;5125414;27;19920;-65
2022/11/30 14:35:58;;;;;;;;;;;6.90;99.90;;;;;;5106872;28;20033;-65
2022/11/30 14:38:25;;;;;;;;;;;6.80;99.90;;;;;;5105977;27;19927;-67
2022/11/30 14:40:52;;;;;;;;;;;6.80;99.90;;;;;;5081398;28;19920;-67